createdAt,value
2023-06-02T00:04:28.280Z,8.23
2023-06-02T00:09:39.174Z,8.63
2023-06-02T00:14:44.138Z,8.07
2023-06-02T00:19:47.133Z,8.43
2023-06-02T00:24:49.739Z,9.52
2023-06-02T00:29:52.338Z,10.15
2023-06-02T00:34:59.897Z,9.93
2023-06-02T00:40:02.480Z,8.07
2023-06-02T00:45:08.663Z,8.48
2023-06-02T00:50:21.754Z,8.68
2023-06-02T00:55:34.392Z,9.60
2023-06-02T01:00:40.897Z,9.32
2023-06-02T01:05:48.433Z,9.20
2023-06-02T01:10:52.476Z,9.55
2023-06-02T01:15:55.193Z,9.30
2023-06-02T01:21:08.442Z,9.20
2023-06-02T01:26:11.530Z,9.82
2023-06-02T01:31:28.058Z,9.75
2023-06-02T01:36:34.873Z,9.05
2023-06-02T01:41:43.639Z,9.15
2023-06-02T01:46:47.139Z,9.55
2023-06-02T01:51:49.728Z,9.05
2023-06-02T01:56:53.272Z,9.10
2023-06-02T02:01:55.955Z,9.90
2023-06-02T02:07:10.526Z,9.10
2023-06-02T02:17:15.718Z,9.23
2023-06-02T02:22:18.996Z,8.90
2023-06-02T02:27:25.272Z,10.00
2023-06-02T02:32:40.658Z,9.82
2023-06-02T02:37:53.205Z,9.65
2023-06-02T02:43:04.682Z,8.73
2023-06-02T02:48:09.520Z,8.43
2023-06-02T02:53:13.804Z,9.23
2023-06-02T02:58:18.154Z,9.57
2023-06-02T03:03:22.455Z,9.45
2023-06-02T03:08:25.323Z,9.52
2023-06-02T03:13:37.989Z,8.60
2023-06-02T03:18:49.276Z,9.05
2023-06-02T03:23:52.279Z,9.18
2023-06-02T03:28:55.160Z,9.32
2023-06-02T03:33:58.321Z,8.88
2023-06-02T03:39:00.950Z,8.73
2023-06-02T03:44:04.995Z,9.10
2023-06-02T03:49:07.682Z,9.88
2023-06-02T03:54:10.244Z,8.60
2023-06-02T03:59:12.761Z,8.63
2023-06-02T04:04:17.481Z,8.82
2023-06-02T04:09:20.707Z,9.75
2023-06-02T04:14:23.318Z,8.48
2023-06-02T04:19:36.000Z,9.63
2023-06-02T04:24:42.305Z,8.65
2023-06-02T04:29:45.807Z,9.88
2023-06-02T04:34:48.655Z,8.57
2023-06-02T04:39:52.157Z,9.80
2023-06-02T04:44:55.879Z,8.68
2023-06-02T04:49:58.495Z,8.50
2023-06-02T04:55:12.517Z,8.35
2023-06-02T05:00:15.923Z,8.25
2023-06-02T05:05:28.519Z,7.70
2023-06-02T05:10:41.481Z,7.95
2023-06-02T05:15:44.020Z,7.65
2023-06-02T05:20:47.051Z,7.82
2023-06-02T05:25:55.792Z,6.97
2023-06-02T05:30:58.587Z,7.05
2023-06-02T05:36:01.663Z,6.70
2023-06-02T05:41:14.551Z,6.35
2023-06-02T05:46:17.355Z,7.03
2023-06-02T05:51:19.906Z,7.50
2023-06-02T05:56:23.455Z,6.88
2023-06-02T06:01:36.431Z,7.10
2023-06-02T06:06:39.135Z,6.65
2023-06-02T06:11:51.911Z,8.07
2023-06-02T06:16:54.939Z,7.10
2023-06-02T06:21:57.868Z,6.70
2023-06-02T06:27:00.527Z,6.63
2023-06-02T06:32:13.383Z,6.38
2023-06-02T06:37:16.083Z,5.97
2023-06-02T06:42:18.670Z,5.63
2023-06-02T06:47:21.475Z,5.75
2023-06-02T06:52:24.326Z,6.07
2023-06-02T06:57:28.031Z,5.65
2023-06-02T07:02:31.440Z,5.00
2023-06-02T07:07:43.813Z,5.05
2023-06-02T07:12:46.718Z,4.67
2023-06-02T07:17:49.756Z,5.10
2023-06-02T07:22:52.445Z,5.07
2023-06-02T07:28:05.816Z,4.68
2023-06-02T07:33:08.771Z,4.53
2023-06-02T07:38:12.261Z,4.95
2023-06-02T07:43:19.473Z,4.55
2023-06-02T07:48:23.139Z,5.25
2023-06-02T07:53:27.549Z,4.20
2023-06-02T07:58:41.112Z,4.75
2023-06-02T08:03:43.905Z,4.67
2023-06-02T08:08:47.263Z,4.53
2023-06-02T08:13:51.706Z,4.80
2023-06-02T08:23:57.261Z,4.70
2023-06-02T08:29:01.971Z,4.80
2023-06-02T08:34:10.190Z,4.43
2023-06-02T08:39:13.411Z,5.00
2023-06-02T08:49:22.439Z,4.57
2023-06-02T08:54:25.958Z,4.40
2023-06-02T09:20:40.265Z,4.20
2023-06-02T09:38:44.074Z,4.43
2023-06-02T09:43:48.067Z,4.00
2023-06-02T09:48:59.112Z,4.18
2023-06-02T09:54:03.373Z,4.20
2023-06-02T09:59:07.956Z,4.20
2023-06-02T10:04:12.988Z,4.57
2023-06-02T10:09:53.769Z,4.30
2023-06-02T10:15:20.874Z,4.45
2023-06-02T10:20:45.887Z,4.85
2023-06-02T10:26:09.131Z,4.22
2023-06-02T10:31:14.431Z,4.38
2023-06-02T10:36:21.008Z,4.80
2023-06-02T10:42:02.419Z,5.20
2023-06-02T10:47:21.684Z,5.20
2023-06-02T10:52:25.643Z,5.43
2023-06-02T10:57:51.412Z,4.95
2023-06-02T11:03:06.602Z,4.68
2023-06-02T11:08:20.592Z,4.88
2023-06-02T11:13:25.148Z,5.05
2023-06-02T11:18:30.180Z,4.95
2023-06-02T11:23:33.988Z,5.50
2023-06-02T11:28:37.639Z,5.13
2023-06-02T11:33:50.982Z,5.07
2023-06-02T11:39:10.088Z,4.72
2023-06-02T11:44:14.058Z,5.35
2023-06-02T11:49:18.121Z,4.78
2023-06-02T11:54:22.153Z,5.00
2023-06-02T11:59:25.687Z,4.95
2023-06-02T12:09:45.377Z,5.00
2023-06-02T12:14:49.337Z,5.25
2023-06-02T12:20:02.653Z,4.72
2023-06-02T12:25:15.947Z,5.50
2023-06-02T12:30:19.815Z,4.07
2023-06-02T12:35:23.379Z,4.00
2023-06-02T12:40:26.721Z,3.58
2023-06-02T12:45:30.572Z,3.42
2023-06-02T12:50:34.085Z,3.70
2023-06-02T12:55:37.786Z,5.00
2023-06-02T13:00:51.942Z,9.93
2023-06-02T13:06:02.584Z,9.30
2023-06-02T13:11:09.654Z,10.70
2023-06-02T13:16:13.796Z,11.40
2023-06-02T13:26:21.154Z,10.82
2023-06-02T13:31:24.508Z,11.17
2023-06-02T13:36:27.852Z,10.00
2023-06-02T13:41:31.175Z,12.73
2023-06-02T13:46:34.449Z,12.18
2023-06-02T13:51:38.252Z,15.98
2023-06-02T13:56:42.163Z,15.95
2023-06-02T14:01:45.564Z,16.65
2023-06-02T14:06:49.305Z,16.45
2023-06-02T14:11:53.761Z,13.63
2023-06-02T14:22:00.216Z,14.20
2023-06-02T14:27:03.651Z,14.05
2023-06-02T14:32:07.256Z,17.60
2023-06-02T14:37:17.669Z,15.27
2023-06-02T14:42:21.245Z,13.90
2023-06-02T14:47:24.534Z,16.27
2023-06-02T14:52:28.233Z,14.75
2023-06-02T14:57:33.192Z,14.55
2023-06-02T15:02:36.634Z,13.93
2023-06-02T15:07:50.106Z,13.50
2023-06-02T15:12:53.645Z,15.35
2023-06-02T15:17:57.217Z,15.10
2023-06-02T15:23:10.548Z,13.60
2023-06-02T15:28:14.085Z,13.77
2023-06-02T15:33:37.419Z,12.18
2023-06-02T15:38:41.408Z,11.00
2023-06-02T15:43:43.969Z,7.72
2023-06-02T15:48:47.216Z,9.30
2023-06-02T15:53:51.669Z,8.90
2023-06-02T15:58:55.118Z,9.52
2023-06-02T16:03:58.051Z,10.43
2023-06-02T16:09:01.484Z,10.05
2023-06-02T16:14:04.605Z,9.53
2023-06-02T16:19:18.620Z,9.07
2023-06-02T16:24:21.307Z,8.35
2023-06-02T16:29:23.868Z,8.23
2023-06-02T16:34:27.203Z,8.43
2023-06-02T16:39:29.753Z,8.98
2023-06-02T16:44:32.270Z,9.00
2023-06-02T16:49:39.754Z,9.07
2023-06-02T16:54:43.002Z,8.63
2023-06-02T16:59:45.841Z,9.00
2023-06-02T17:04:48.529Z,8.82
2023-06-02T17:09:51.164Z,9.13
2023-06-02T17:14:54.853Z,9.57
2023-06-02T17:19:57.674Z,10.48
2023-06-02T17:25:00.422Z,10.57
2023-06-02T17:30:06.843Z,10.63
2023-06-02T17:35:09.872Z,11.13
2023-06-02T17:40:12.969Z,11.75
2023-06-02T17:45:16.260Z,11.30
2023-06-02T17:50:18.950Z,11.27
2023-06-02T17:55:31.649Z,8.25
2023-06-02T18:00:34.846Z,8.63
2023-06-02T18:05:38.270Z,9.35
2023-06-02T18:10:41.652Z,9.60
2023-06-02T18:15:44.279Z,9.85
2023-06-02T18:20:47.225Z,8.60
2023-06-02T18:25:49.824Z,23.00
2023-06-02T18:30:52.947Z,11.60
2023-06-02T18:36:05.980Z,6.65
2023-06-02T18:41:12.269Z,8.48
2023-06-02T18:46:18.081Z,8.48
2023-06-02T18:51:20.862Z,8.73
2023-06-02T18:56:23.615Z,8.00
2023-06-02T19:01:28.719Z,10.57
2023-06-02T19:06:31.408Z,8.50
2023-06-02T19:11:44.263Z,7.15
2023-06-02T19:16:46.935Z,7.63
2023-06-02T19:21:59.660Z,6.93
2023-06-02T19:27:02.417Z,8.35
2023-06-02T19:32:15.209Z,6.60
2023-06-02T19:37:19.418Z,6.85
2023-06-02T19:42:22.613Z,5.60
2023-06-02T19:47:35.201Z,5.63
2023-06-02T19:52:37.818Z,6.28
2023-06-02T19:57:41.829Z,5.57
2023-06-02T20:02:44.472Z,6.22
2023-06-02T20:07:51.851Z,5.75
2023-06-02T20:12:58.281Z,6.63
2023-06-02T20:18:01.173Z,6.55
2023-06-02T20:23:13.997Z,6.78
2023-06-02T20:28:16.736Z,6.05
2023-06-02T20:33:19.463Z,6.10
2023-06-02T20:38:22.244Z,6.80
2023-06-02T20:43:25.072Z,7.53
2023-06-02T20:48:27.800Z,8.45
2023-06-02T20:53:30.433Z,7.53
2023-06-02T20:58:33.130Z,7.45
2023-06-02T21:03:36.278Z,7.47
2023-06-02T21:08:39.225Z,6.45
2023-06-02T21:13:42.054Z,6.80
2023-06-02T21:18:56.238Z,6.32
2023-06-02T21:24:02.516Z,7.47
2023-06-02T21:29:05.632Z,7.25
2023-06-02T21:34:09.498Z,7.70
2023-06-02T21:39:12.662Z,6.88
2023-06-02T21:44:15.619Z,7.10
2023-06-02T21:49:28.334Z,7.50
2023-06-02T21:54:30.925Z,4.70
2023-06-02T21:59:33.618Z,4.68
2023-06-02T22:04:36.263Z,4.90
2023-06-02T22:09:38.995Z,5.30
2023-06-02T22:14:41.711Z,4.95
2023-06-02T22:19:53.827Z,5.03
2023-06-02T22:25:03.474Z,4.32
2023-06-02T22:30:07.525Z,4.53
2023-06-02T22:35:17.352Z,4.30
2023-06-02T22:40:23.559Z,4.13
2023-06-02T22:45:26.435Z,3.85
2023-06-02T22:50:29.141Z,3.40
2023-06-02T22:55:32.014Z,3.47
2023-06-02T23:00:34.909Z,3.35
2023-06-02T23:05:44.180Z,3.25
2023-06-02T23:10:48.010Z,3.10
2023-06-02T23:15:53.918Z,3.28
2023-06-02T23:20:56.734Z,3.10
2023-06-02T23:26:00.263Z,3.33
2023-06-02T23:31:08.566Z,2.92
2023-06-02T23:36:25.942Z,3.08
2023-06-02T23:41:28.649Z,3.40
2023-06-02T23:46:31.325Z,3.45
2023-06-02T23:51:33.929Z,4.03
2023-06-02T23:56:37.229Z,3.72
